Selkirk, NY (12158)

6:20 AM EST on February 13, 2016 (GMT -0500)
Dutch Mills | | Change Station
CLOSE
Current Station
Personal Weather Station
Location: Selkirk, NY
Elevation: 157 ft
Nearby Weather Stations
Active Advisory: Wind Chill Warning

Elev 157 ft 42.58 °N, 73.81 °W | Updated 6 minutes ago

Mostly Cloudy
Mostly Cloudy
16.5 °F
Feels Like 11 °F
N
3.2
Wind Variable Wind from WSW

Today
High -- | Low -- °F
--% Chance of Precip.
Yesterday
High -- | Low -- °F
Precip. -- in
Pressure 29.89 in
Visibility 10.0 miles
Clouds Mostly Cloudy 8000 ft
Windchill 11 °F
Dew Point 5 °F
Humidity 61%
Rainfall 0.00 in
Snow Depth Not available.
6:55 AM 5:24 PM
Waxing Crescent, 29% visible
METAR KALB 131051Z 32008KT 10SM BKN080 M08/M14 A2987 RMK AO2 SLP121 T10831144
Pressure 29.89 in
Visibility 10.0 miles
Clouds Mostly Cloudy 8000 ft
Windchill 11 °F
Dew Point 5 °F
Humidity 61%
Rainfall 0.00 in
Snow Depth Not available.
6:55 AM 5:24 PM
Waxing Crescent, 29% visible
METAR KALB 131051Z 32008KT 10SM BKN080 M08/M14 A2987 RMK AO2 SLP121 T10831144

10-Day Weather Forecast

Almanac

Astronomy

Feb. 13, 2016 Rise Set
Actual Time
Civil Twilight
Nautical Twilight
Astronomical Twilight
Moon
Length of Visible Light
Length of Day
Tomorrow will be .
, % of the Moon is Illuminated

Today's Extremes

State Highs State Lows

Community

WunderPhotos

Upload Photos

1,892,541 photos uploaded!

WunderBlog® & News

Nearby

Air Quality

  Air Quality AQ Index Pollutant
Not available.

Snow Depth

Station Depth Elevation

Earthquake Activity

City Distance Mag. Time & Date
Minimum magnitude displayed is 2.5.

Coastal Water Temperatures

Place Temperature

Stations

Nearby Weather Stations

Station Location Temp. Windchill Dew Point Humidity Wind Precip. Elev Updated Type
                   

Watches & Warnings

Wind Chill Warning
Issued: 4:50 AM EST Feb. 13, 2016 – National Weather Service

... Wind chill warning remains in effect from 1 PM this afternoon
to 1 PM EST Sunday...

* locations... Mohawk Valley... greater capital region... Lake
George Saratoga region... Mid Hudson valley... Taconics...
Berkshires and Litchfield Hills.

* Hazard types... dangerous to potentially life threatening wind
chills.

* Wind chill readings... 25 to 40 below zero at times.

* Timing... early this afternoon through early Sunday afternoon.

* Impacts... wind chills will reach dangerous to potentially life
threatening levels. Frigid temperatures have the potential to
result in frozen pipes... frostbite and hypothermia in a short
amount of time.

* Winds... northwest 15 to 25 mph with gusts up to 45 mph.

* Temperatures... 5 below zero to 20 below zero by late tonight.

Precautionary/preparedness actions...

A wind chill warning means the combination of very cold air and
strong winds will create dangerously low wind chill values. This
will result in frost bite and lead to hypothermia or death if
precautions are not taken.